sensor_id;sensor_type;location;lat;lon;timestamp;temperature;humidity
48579;DHT22;34357;51.948;6.132;2024-02-23T00:00:46;4.40;92.70
48579;DHT22;34357;51.948;6.132;2024-02-23T00:03:12;4.40;92.70
48579;DHT22;34357;51.948;6.132;2024-02-23T00:05:37;4.40;92.50
48579;DHT22;34357;51.948;6.132;2024-02-23T00:08:03;4.40;92.50
48579;DHT22;34357;51.948;6.132;2024-02-23T00:10:29;4.40;92.50
48579;DHT22;34357;51.948;6.132;2024-02-23T00:12:55;4.40;92.50
48579;DHT22;34357;51.948;6.132;2024-02-23T00:15:21;4.50;92.50
48579;DHT22;34357;51.948;6.132;2024-02-23T00:17:47;4.40;92.50
48579;DHT22;34357;51.948;6.132;2024-02-23T00:20:13;4.50;92.50
48579;DHT22;34357;51.948;6.132;2024-02-23T00:22:40;4.50;92.50
48579;DHT22;34357;51.948;6.132;2024-02-23T00:25:06;4.60;92.50
48579;DHT22;34357;51.948;6.132;2024-02-23T00:27:32;4.60;92.30
48579;DHT22;34357;51.948;6.132;2024-02-23T00:29:57;4.60;92.30
48579;DHT22;34357;51.948;6.132;2024-02-23T00:32:23;4.60;92.10
48579;DHT22;34357;51.948;6.132;2024-02-23T00:34:49;4.60;91.60
48579;DHT22;34357;51.948;6.132;2024-02-23T00:37:14;4.60;91.70
48579;DHT22;34357;51.948;6.132;2024-02-23T00:39:40;4.60;91.70
48579;DHT22;34357;51.948;6.132;2024-02-23T00:42:06;4.60;91.70
48579;DHT22;34357;51.948;6.132;2024-02-23T00:44:33;4.60;91.70
48579;DHT22;34357;51.948;6.132;2024-02-23T00:46:58;4.60;91.60
48579;DHT22;34357;51.948;6.132;2024-02-23T00:49:27;4.60;91.60
48579;DHT22;34357;51.948;6.132;2024-02-23T00:51:54;4.60;91.60
48579;DHT22;34357;51.948;6.132;2024-02-23T00:54:21;4.60;91.50
48579;DHT22;34357;51.948;6.132;2024-02-23T00:56:46;4.60;91.30
48579;DHT22;34357;51.948;6.132;2024-02-23T00:59:12;4.60;91.40
48579;DHT22;34357;51.948;6.132;2024-02-23T01:01:38;4.60;91.50
48579;DHT22;34357;51.948;6.132;2024-02-23T01:04:04;4.60;91.50
48579;DHT22;34357;51.948;6.132;2024-02-23T01:06:30;4.60;92.00
48579;DHT22;34357;51.948;6.132;2024-02-23T01:08:55;4.60;92.20
48579;DHT22;34357;51.948;6.132;2024-02-23T01:11:21;4.60;92.40
48579;DHT22;34357;51.948;6.132;2024-02-23T01:13:47;4.60;92.50
48579;DHT22;34357;51.948;6.132;2024-02-23T01:16:13;4.60;92.50
48579;DHT22;34357;51.948;6.132;2024-02-23T01:18:38;4.60;92.30
48579;DHT22;34357;51.948;6.132;2024-02-23T01:21:04;4.70;92.20
48579;DHT22;34357;51.948;6.132;2024-02-23T01:23:29;4.70;92.20
48579;DHT22;34357;51.948;6.132;2024-02-23T01:25:55;4.70;92.20
48579;DHT22;34357;51.948;6.132;2024-02-23T01:28:21;4.70;92.10
48579;DHT22;34357;51.948;6.132;2024-02-23T01:30:47;4.70;92.10
48579;DHT22;34357;51.948;6.132;2024-02-23T01:33:12;4.80;92.10
48579;DHT22;34357;51.948;6.132;2024-02-23T01:35:38;4.80;91.90
48579;DHT22;34357;51.948;6.132;2024-02-23T01:38:04;4.80;91.80
48579;DHT22;34357;51.948;6.132;2024-02-23T01:40:30;4.80;91.60
48579;DHT22;34357;51.948;6.132;2024-02-23T01:43:03;4.80;91.40
48579;DHT22;34357;51.948;6.132;2024-02-23T01:45:30;4.80;91.30
48579;DHT22;34357;51.948;6.132;2024-02-23T01:47:57;4.80;91.30
48579;DHT22;34357;51.948;6.132;2024-02-23T01:50:23;4.90;91.30
48579;DHT22;34357;51.948;6.132;2024-02-23T01:52:49;4.80;91.20
48579;DHT22;34357;51.948;6.132;2024-02-23T01:55:20;4.80;90.90
48579;DHT22;34357;51.948;6.132;2024-02-23T01:57:46;4.80;90.80
48579;DHT22;34357;51.948;6.132;2024-02-23T02:00:15;4.80;90.90
48579;DHT22;34357;51.948;6.132;2024-02-23T02:02:48;4.70;91.00
48579;DHT22;34357;51.948;6.132;2024-02-23T02:05:15;4.70;91.00
48579;DHT22;34357;51.948;6.132;2024-02-23T02:07:41;4.70;90.80
48579;DHT22;34357;51.948;6.132;2024-02-23T02:10:09;4.70;90.50
48579;DHT22;34357;51.948;6.132;2024-02-23T02:12:35;4.70;90.40
48579;DHT22;34357;51.948;6.132;2024-02-23T02:15:01;4.70;90.30
48579;DHT22;34357;51.948;6.132;2024-02-23T02:17:28;4.70;90.10
48579;DHT22;34357;51.948;6.132;2024-02-23T02:19:54;4.70;90.00
48579;DHT22;34357;51.948;6.132;2024-02-23T02:22:20;4.70;89.90
48579;DHT22;34357;51.948;6.132;2024-02-23T02:24:46;4.70;90.00
48579;DHT22;34357;51.948;6.132;2024-02-23T02:27:14;4.70;90.00
48579;DHT22;34357;51.948;6.132;2024-02-23T02:29:40;4.70;89.90
48579;DHT22;34357;51.948;6.132;2024-02-23T02:32:06;4.70;89.60
48579;DHT22;34357;51.948;6.132;2024-02-23T02:34:31;4.70;89.60
48579;DHT22;34357;51.948;6.132;2024-02-23T02:36:57;4.80;89.50
48579;DHT22;34357;51.948;6.132;2024-02-23T02:39:23;4.70;89.40
48579;DHT22;34357;51.948;6.132;2024-02-23T02:41:48;4.70;89.10
48579;DHT22;34357;51.948;6.132;2024-02-23T02:44:14;4.80;88.90
48579;DHT22;34357;51.948;6.132;2024-02-23T02:46:41;4.80;88.80
48579;DHT22;34357;51.948;6.132;2024-02-23T02:49:07;4.90;88.50
48579;DHT22;34357;51.948;6.132;2024-02-23T02:51:32;4.90;88.40
48579;DHT22;34357;51.948;6.132;2024-02-23T02:53:58;4.90;88.30
48579;DHT22;34357;51.948;6.132;2024-02-23T02:56:24;4.90;88.40
48579;DHT22;34357;51.948;6.132;2024-02-23T02:58:49;4.90;88.20
48579;DHT22;34357;51.948;6.132;2024-02-23T03:01:15;5.00;88.10
48579;DHT22;34357;51.948;6.132;2024-02-23T03:03:41;5.00;88.30
48579;DHT22;34357;51.948;6.132;2024-02-23T03:06:06;4.90;87.90
48579;DHT22;34357;51.948;6.132;2024-02-23T03:08:33;4.90;87.80
48579;DHT22;34357;51.948;6.132;2024-02-23T03:10:59;4.80;88.00
48579;DHT22;34357;51.948;6.132;2024-02-23T03:13:24;4.80;87.90
48579;DHT22;34357;51.948;6.132;2024-02-23T03:15:50;4.70;88.00
48579;DHT22;34357;51.948;6.132;2024-02-23T03:18:16;4.70;87.90
48579;DHT22;34357;51.948;6.132;2024-02-23T03:20:42;4.70;88.30
48579;DHT22;34357;51.948;6.132;2024-02-23T03:23:07;4.60;88.40
48579;DHT22;34357;51.948;6.132;2024-02-23T03:25:33;4.70;88.20
48579;DHT22;34357;51.948;6.132;2024-02-23T03:27:59;4.70;87.80
48579;DHT22;34357;51.948;6.132;2024-02-23T03:30:24;4.70;87.60
48579;DHT22;34357;51.948;6.132;2024-02-23T03:32:50;4.70;87.70
48579;DHT22;34357;51.948;6.132;2024-02-23T03:35:16;4.60;87.80
48579;DHT22;34357;51.948;6.132;2024-02-23T03:37:42;4.60;87.80
48579;DHT22;34357;51.948;6.132;2024-02-23T03:40:08;4.50;88.10
48579;DHT22;34357;51.948;6.132;2024-02-23T03:42:35;4.60;88.00
48579;DHT22;34357;51.948;6.132;2024-02-23T03:45:02;4.60;87.70
48579;DHT22;34357;51.948;6.132;2024-02-23T03:47:28;4.60;87.80
48579;DHT22;34357;51.948;6.132;2024-02-23T03:49:54;4.60;87.90
48579;DHT22;34357;51.948;6.132;2024-02-23T03:52:20;4.60;87.80
48579;DHT22;34357;51.948;6.132;2024-02-23T03:54:45;4.60;87.90
48579;DHT22;34357;51.948;6.132;2024-02-23T03:57:11;4.60;88.10
48579;DHT22;34357;51.948;6.132;2024-02-23T03:59:37;4.70;87.90
48579;DHT22;34357;51.948;6.132;2024-02-23T04:02:04;4.60;87.70
48579;DHT22;34357;51.948;6.132;2024-02-23T04:04:30;4.60;87.70
48579;DHT22;34357;51.948;6.132;2024-02-23T04:06:55;4.60;87.80
48579;DHT22;34357;51.948;6.132;2024-02-23T04:09:21;4.60;88.00
48579;DHT22;34357;51.948;6.132;2024-02-23T04:11:48;4.60;88.00
48579;DHT22;34357;51.948;6.132;2024-02-23T04:14:14;4.60;88.00
48579;DHT22;34357;51.948;6.132;2024-02-23T04:16:39;4.50;88.10
48579;DHT22;34357;51.948;6.132;2024-02-23T04:19:05;4.60;88.20
48579;DHT22;34357;51.948;6.132;2024-02-23T04:21:31;4.50;88.20
48579;DHT22;34357;51.948;6.132;2024-02-23T04:23:56;4.50;88.40
48579;DHT22;34357;51.948;6.132;2024-02-23T04:26:23;4.50;88.10
48579;DHT22;34357;51.948;6.132;2024-02-23T04:28:49;4.60;88.00
48579;DHT22;34357;51.948;6.132;2024-02-23T04:31:14;4.60;88.00
48579;DHT22;34357;51.948;6.132;2024-02-23T04:33:40;4.60;87.90
48579;DHT22;34357;51.948;6.132;2024-02-23T04:36:06;4.50;87.90
48579;DHT22;34357;51.948;6.132;2024-02-23T04:38:33;4.60;88.10
48579;DHT22;34357;51.948;6.132;2024-02-23T04:41:03;4.50;88.20
48579;DHT22;34357;51.948;6.132;2024-02-23T04:43:30;4.70;87.80
48579;DHT22;34357;51.948;6.132;2024-02-23T04:45:55;4.60;87.70
48579;DHT22;34357;51.948;6.132;2024-02-23T04:48:21;4.60;87.90
48579;DHT22;34357;51.948;6.132;2024-02-23T04:50:47;4.60;87.80
48579;DHT22;34357;51.948;6.132;2024-02-23T04:53:12;4.60;87.90
48579;DHT22;34357;51.948;6.132;2024-02-23T04:55:39;4.60;87.80
48579;DHT22;34357;51.948;6.132;2024-02-23T04:58:05;4.60;87.90
48579;DHT22;34357;51.948;6.132;2024-02-23T05:00:31;4.60;87.70
48579;DHT22;34357;51.948;6.132;2024-02-23T05:03:02;4.60;87.80
48579;DHT22;34357;51.948;6.132;2024-02-23T05:05:31;4.60;87.80
48579;DHT22;34357;51.948;6.132;2024-02-23T05:07:57;4.60;87.80
48579;DHT22;34357;51.948;6.132;2024-02-23T05:10:23;4.50;88.10
48579;DHT22;34357;51.948;6.132;2024-02-23T05:12:50;4.60;88.20
48579;DHT22;34357;51.948;6.132;2024-02-23T05:15:16;4.60;88.10
48579;DHT22;34357;51.948;6.132;2024-02-23T05:17:42;4.60;87.90
48579;DHT22;34357;51.948;6.132;2024-02-23T05:20:08;4.60;88.00
48579;DHT22;34357;51.948;6.132;2024-02-23T05:22:39;4.60;87.90
48579;DHT22;34357;51.948;6.132;2024-02-23T05:25:05;4.70;87.90
48579;DHT22;34357;51.948;6.132;2024-02-23T05:27:31;4.70;87.60
48579;DHT22;34357;51.948;6.132;2024-02-23T05:29:57;4.70;87.70
48579;DHT22;34357;51.948;6.132;2024-02-23T05:32:23;4.80;87.60
48579;DHT22;34357;51.948;6.132;2024-02-23T05:34:48;4.80;87.60
48579;DHT22;34357;51.948;6.132;2024-02-23T05:37:17;4.80;87.70
48579;DHT22;34357;51.948;6.132;2024-02-23T05:39:43;4.80;87.60
48579;DHT22;34357;51.948;6.132;2024-02-23T05:42:09;4.80;87.50
48579;DHT22;34357;51.948;6.132;2024-02-23T05:44:36;4.90;87.40
48579;DHT22;34357;51.948;6.132;2024-02-23T05:47:02;4.90;87.10
48579;DHT22;34357;51.948;6.132;2024-02-23T05:49:27;4.90;86.90
48579;DHT22;34357;51.948;6.132;2024-02-23T05:51:53;4.90;87.10
48579;DHT22;34357;51.948;6.132;2024-02-23T05:54:19;4.90;86.80
48579;DHT22;34357;51.948;6.132;2024-02-23T05:56:45;5.00;86.70
48579;DHT22;34357;51.948;6.132;2024-02-23T05:59:11;5.00;86.80
48579;DHT22;34357;51.948;6.132;2024-02-23T06:01:37;5.00;87.00
48579;DHT22;34357;51.948;6.132;2024-02-23T06:04:03;5.10;86.80
48579;DHT22;34357;51.948;6.132;2024-02-23T06:06:28;5.00;86.90
48579;DHT22;34357;51.948;6.132;2024-02-23T06:08:54;5.10;86.60
48579;DHT22;34357;51.948;6.132;2024-02-23T06:11:20;5.10;86.60
48579;DHT22;34357;51.948;6.132;2024-02-23T06:13:46;5.10;86.30
48579;DHT22;34357;51.948;6.132;2024-02-23T06:16:12;5.10;86.60
48579;DHT22;34357;51.948;6.132;2024-02-23T06:18:39;5.10;86.50
48579;DHT22;34357;51.948;6.132;2024-02-23T06:21:13;5.20;86.00
48579;DHT22;34357;51.948;6.132;2024-02-23T06:23:39;5.20;86.30
48579;DHT22;34357;51.948;6.132;2024-02-23T06:26:05;5.20;86.40
48579;DHT22;34357;51.948;6.132;2024-02-23T06:28:31;5.20;86.10
48579;DHT22;34357;51.948;6.132;2024-02-23T06:30:57;5.20;85.70
48579;DHT22;34357;51.948;6.132;2024-02-23T06:33:22;5.30;85.40
48579;DHT22;34357;51.948;6.132;2024-02-23T06:35:48;5.40;85.60
48579;DHT22;34357;51.948;6.132;2024-02-23T06:38:14;5.30;85.60
48579;DHT22;34357;51.948;6.132;2024-02-23T06:40:39;5.40;85.30
48579;DHT22;34357;51.948;6.132;2024-02-23T06:43:05;5.30;85.30
48579;DHT22;34357;51.948;6.132;2024-02-23T06:45:31;5.30;85.30
48579;DHT22;34357;51.948;6.132;2024-02-23T06:47:56;5.20;85.60
48579;DHT22;34357;51.948;6.132;2024-02-23T06:50:22;5.20;85.30
48579;DHT22;34357;51.948;6.132;2024-02-23T06:52:48;5.30;84.90
48579;DHT22;34357;51.948;6.132;2024-02-23T06:55:15;5.20;85.20
48579;DHT22;34357;51.948;6.132;2024-02-23T06:57:42;5.30;84.60
48579;DHT22;34357;51.948;6.132;2024-02-23T07:00:08;5.40;84.60
48579;DHT22;34357;51.948;6.132;2024-02-23T07:02:34;5.40;84.20
48579;DHT22;34357;51.948;6.132;2024-02-23T07:05:02;5.50;84.20
48579;DHT22;34357;51.948;6.132;2024-02-23T07:07:32;5.50;84.20
48579;DHT22;34357;51.948;6.132;2024-02-23T07:09:59;5.50;83.80
48579;DHT22;34357;51.948;6.132;2024-02-23T07:12:25;5.50;83.90
48579;DHT22;34357;51.948;6.132;2024-02-23T07:14:53;5.50;84.20
48579;DHT22;34357;51.948;6.132;2024-02-23T07:17:19;5.50;83.90
48579;DHT22;34357;51.948;6.132;2024-02-23T07:19:45;5.60;83.50
48579;DHT22;34357;51.948;6.132;2024-02-23T07:22:11;5.60;83.60
48579;DHT22;34357;51.948;6.132;2024-02-23T07:24:42;5.70;83.00
48579;DHT22;34357;51.948;6.132;2024-02-23T07:27:08;5.70;82.80
48579;DHT22;34357;51.948;6.132;2024-02-23T07:29:34;5.70;82.70
48579;DHT22;34357;51.948;6.132;2024-02-23T07:32:00;5.70;82.90
48579;DHT22;34357;51.948;6.132;2024-02-23T07:34:26;5.70;82.90
48579;DHT22;34357;51.948;6.132;2024-02-23T07:36:52;5.80;83.10
48579;DHT22;34357;51.948;6.132;2024-02-23T07:39:18;5.80;82.80
48579;DHT22;34357;51.948;6.132;2024-02-23T07:41:44;5.90;81.80
48579;DHT22;34357;51.948;6.132;2024-02-23T07:44:10;5.90;82.00
48579;DHT22;34357;51.948;6.132;2024-02-23T07:46:36;5.90;81.90
48579;DHT22;34357;51.948;6.132;2024-02-23T07:49:02;5.90;82.10
48579;DHT22;34357;51.948;6.132;2024-02-23T07:51:28;5.90;81.70
48579;DHT22;34357;51.948;6.132;2024-02-23T07:53:54;5.90;81.80
48579;DHT22;34357;51.948;6.132;2024-02-23T07:56:20;5.90;81.70
48579;DHT22;34357;51.948;6.132;2024-02-23T07:58:46;6.00;81.70
48579;DHT22;34357;51.948;6.132;2024-02-23T08:01:14;6.00;81.60
48579;DHT22;34357;51.948;6.132;2024-02-23T08:03:40;6.10;81.40
48579;DHT22;34357;51.948;6.132;2024-02-23T08:06:06;6.10;81.50
48579;DHT22;34357;51.948;6.132;2024-02-23T08:08:32;6.10;81.50
48579;DHT22;34357;51.948;6.132;2024-02-23T08:11:01;6.10;81.50
48579;DHT22;34357;51.948;6.132;2024-02-23T08:13:28;6.10;80.90
48579;DHT22;34357;51.948;6.132;2024-02-23T08:15:53;6.20;81.20
48579;DHT22;34357;51.948;6.132;2024-02-23T08:18:19;6.20;80.90
48579;DHT22;34357;51.948;6.132;2024-02-23T08:20:45;6.20;81.20
48579;DHT22;34357;51.948;6.132;2024-02-23T08:23:10;6.30;80.90
48579;DHT22;34357;51.948;6.132;2024-02-23T08:25:37;6.50;80.40
48579;DHT22;34357;51.948;6.132;2024-02-23T08:28:02;6.60;80.20
48579;DHT22;34357;51.948;6.132;2024-02-23T08:30:28;6.70;78.80
48579;DHT22;34357;51.948;6.132;2024-02-23T08:32:54;6.80;79.10
48579;DHT22;34357;51.948;6.132;2024-02-23T08:35:20;6.70;78.10
48579;DHT22;34357;51.948;6.132;2024-02-23T08:37:46;6.70;79.10
48579;DHT22;34357;51.948;6.132;2024-02-23T08:40:11;6.70;78.80
48579;DHT22;34357;51.948;6.132;2024-02-23T08:42:37;6.70;78.20
48579;DHT22;34357;51.948;6.132;2024-02-23T08:45:03;6.70;78.00
48579;DHT22;34357;51.948;6.132;2024-02-23T08:47:30;6.80;78.30
48579;DHT22;34357;51.948;6.132;2024-02-23T08:49:58;6.60;78.20
48579;DHT22;34357;51.948;6.132;2024-02-23T08:52:24;6.60;78.20
48579;DHT22;34357;51.948;6.132;2024-02-23T08:54:51;6.60;78.70
48579;DHT22;34357;51.948;6.132;2024-02-23T08:57:17;6.60;78.60
48579;DHT22;34357;51.948;6.132;2024-02-23T08:59:45;6.70;78.30
48579;DHT22;34357;51.948;6.132;2024-02-23T09:02:11;6.80;78.30
48579;DHT22;34357;51.948;6.132;2024-02-23T09:04:37;6.90;78.00
48579;DHT22;34357;51.948;6.132;2024-02-23T09:07:03;7.00;77.80
48579;DHT22;34357;51.948;6.132;2024-02-23T09:09:29;7.10;76.80
48579;DHT22;34357;51.948;6.132;2024-02-23T09:11:55;7.10;77.10
48579;DHT22;34357;51.948;6.132;2024-02-23T09:14:21;7.10;77.80
48579;DHT22;34357;51.948;6.132;2024-02-23T09:16:47;7.10;77.00
48579;DHT22;34357;51.948;6.132;2024-02-23T09:19:16;7.20;77.00
48579;DHT22;34357;51.948;6.132;2024-02-23T09:21:42;7.10;77.30
48579;DHT22;34357;51.948;6.132;2024-02-23T09:24:08;7.10;76.80
48579;DHT22;34357;51.948;6.132;2024-02-23T09:26:33;7.00;77.30
48579;DHT22;34357;51.948;6.132;2024-02-23T09:28:59;7.00;77.90
48579;DHT22;34357;51.948;6.132;2024-02-23T09:31:25;7.00;77.40
48579;DHT22;34357;51.948;6.132;2024-02-23T09:33:51;6.90;77.70
48579;DHT22;34357;51.948;6.132;2024-02-23T09:36:17;7.00;77.50
48579;DHT22;34357;51.948;6.132;2024-02-23T09:38:43;7.00;78.00
48579;DHT22;34357;51.948;6.132;2024-02-23T09:41:21;7.10;77.50
48579;DHT22;34357;51.948;6.132;2024-02-23T09:43:48;7.10;77.40
48579;DHT22;34357;51.948;6.132;2024-02-23T09:46:20;7.10;77.00
48579;DHT22;34357;51.948;6.132;2024-02-23T09:48:48;7.10;77.20
48579;DHT22;34357;51.948;6.132;2024-02-23T09:51:15;7.10;77.70
48579;DHT22;34357;51.948;6.132;2024-02-23T09:53:42;7.10;77.90
48579;DHT22;34357;51.948;6.132;2024-02-23T09:56:09;7.00;77.40
48579;DHT22;34357;51.948;6.132;2024-02-23T09:58:36;6.90;77.90
48579;DHT22;34357;51.948;6.132;2024-02-23T10:01:03;6.90;78.20
48579;DHT22;34357;51.948;6.132;2024-02-23T10:03:30;6.90;78.20
48579;DHT22;34357;51.948;6.132;2024-02-23T10:05:59;6.90;78.10
48579;DHT22;34357;51.948;6.132;2024-02-23T10:08:27;6.90;78.80
48579;DHT22;34357;51.948;6.132;2024-02-23T10:10:54;6.90;79.00
48579;DHT22;34357;51.948;6.132;2024-02-23T10:13:22;6.80;78.50
48579;DHT22;34357;51.948;6.132;2024-02-23T10:15:53;6.90;79.00
48579;DHT22;34357;51.948;6.132;2024-02-23T10:18:19;6.90;78.40
48579;DHT22;34357;51.948;6.132;2024-02-23T10:20:46;6.90;78.10
48579;DHT22;34357;51.948;6.132;2024-02-23T10:23:12;6.90;78.80
48579;DHT22;34357;51.948;6.132;2024-02-23T10:25:37;7.00;79.10
48579;DHT22;34357;51.948;6.132;2024-02-23T10:28:06;7.00;78.70
48579;DHT22;34357;51.948;6.132;2024-02-23T10:30:33;7.10;78.90
48579;DHT22;34357;51.948;6.132;2024-02-23T10:32:59;7.10;78.50
48579;DHT22;34357;51.948;6.132;2024-02-23T10:35:26;7.20;78.30
48579;DHT22;34357;51.948;6.132;2024-02-23T10:37:53;7.20;78.20
48579;DHT22;34357;51.948;6.132;2024-02-23T10:40:20;7.30;78.10
48579;DHT22;34357;51.948;6.132;2024-02-23T10:42:48;7.20;78.70
48579;DHT22;34357;51.948;6.132;2024-02-23T10:45:20;7.30;78.70
48579;DHT22;34357;51.948;6.132;2024-02-23T10:47:50;7.20;78.80
48579;DHT22;34357;51.948;6.132;2024-02-23T10:50:18;7.20;79.40
48579;DHT22;34357;51.948;6.132;2024-02-23T10:52:45;7.10;79.20
48579;DHT22;34357;51.948;6.132;2024-02-23T10:55:14;7.10;79.70
48579;DHT22;34357;51.948;6.132;2024-02-23T10:57:40;7.10;79.40
48579;DHT22;34357;51.948;6.132;2024-02-23T11:00:07;7.00;79.60
48579;DHT22;34357;51.948;6.132;2024-02-23T11:02:42;7.00;80.30
48579;DHT22;34357;51.948;6.132;2024-02-23T11:05:09;7.10;80.10
48579;DHT22;34357;51.948;6.132;2024-02-23T11:07:40;7.00;80.50
48579;DHT22;34357;51.948;6.132;2024-02-23T11:10:07;7.10;80.20
48579;DHT22;34357;51.948;6.132;2024-02-23T11:12:34;7.10;79.30
48579;DHT22;34357;51.948;6.132;2024-02-23T11:15:02;7.20;79.10
48579;DHT22;34357;51.948;6.132;2024-02-23T11:17:30;7.20;78.30
48579;DHT22;34357;51.948;6.132;2024-02-23T11:19:56;7.30;79.00
48579;DHT22;34357;51.948;6.132;2024-02-23T11:22:31;7.30;78.30
48579;DHT22;34357;51.948;6.132;2024-02-23T11:25:07;7.50;78.70
48579;DHT22;34357;51.948;6.132;2024-02-23T11:27:37;7.50;78.30
48579;DHT22;34357;51.948;6.132;2024-02-23T11:30:08;7.40;78.50
48579;DHT22;34357;51.948;6.132;2024-02-23T11:32:43;7.50;78.50
48579;DHT22;34357;51.948;6.132;2024-02-23T11:35:15;7.50;78.10
48579;DHT22;34357;51.948;6.132;2024-02-23T11:37:48;7.50;78.20
48579;DHT22;34357;51.948;6.132;2024-02-23T11:40:17;7.40;78.30
48579;DHT22;34357;51.948;6.132;2024-02-23T11:42:43;7.40;78.30
48579;DHT22;34357;51.948;6.132;2024-02-23T11:45:10;7.40;78.20
48579;DHT22;34357;51.948;6.132;2024-02-23T11:47:39;7.40;78.10
48579;DHT22;34357;51.948;6.132;2024-02-23T11:50:11;7.40;78.50
48579;DHT22;34357;51.948;6.132;2024-02-23T11:52:40;7.40;78.30
48579;DHT22;34357;51.948;6.132;2024-02-23T11:55:07;7.40;78.30
48579;DHT22;34357;51.948;6.132;2024-02-23T11:57:34;7.40;78.50
48579;DHT22;34357;51.948;6.132;2024-02-23T12:00:04;7.40;78.40
48579;DHT22;34357;51.948;6.132;2024-02-23T12:02:32;7.30;79.00
48579;DHT22;34357;51.948;6.132;2024-02-23T12:04:58;7.40;78.20
48579;DHT22;34357;51.948;6.132;2024-02-23T12:07:24;7.40;78.20
48579;DHT22;34357;51.948;6.132;2024-02-23T12:09:52;7.70;78.60
48579;DHT22;34357;51.948;6.132;2024-02-23T12:12:18;8.00;78.00
48579;DHT22;34357;51.948;6.132;2024-02-23T12:14:44;7.90;77.10
48579;DHT22;34357;51.948;6.132;2024-02-23T12:17:10;7.80;77.70
48579;DHT22;34357;51.948;6.132;2024-02-23T12:19:39;7.70;78.00
48579;DHT22;34357;51.948;6.132;2024-02-23T12:22:08;7.60;77.50
48579;DHT22;34357;51.948;6.132;2024-02-23T12:24:35;7.60;78.00
48579;DHT22;34357;51.948;6.132;2024-02-23T12:27:01;7.60;77.90
48579;DHT22;34357;51.948;6.132;2024-02-23T12:29:26;7.60;78.30
48579;DHT22;34357;51.948;6.132;2024-02-23T12:32:06;7.60;77.90
48579;DHT22;34357;51.948;6.132;2024-02-23T12:34:32;7.60;77.90
48579;DHT22;34357;51.948;6.132;2024-02-23T12:36:59;7.60;78.20
48579;DHT22;34357;51.948;6.132;2024-02-23T12:39:24;7.60;78.20
48579;DHT22;34357;51.948;6.132;2024-02-23T12:41:51;7.60;78.10
48579;DHT22;34357;51.948;6.132;2024-02-23T12:44:17;7.60;78.00
48579;DHT22;34357;51.948;6.132;2024-02-23T12:46:42;7.60;78.50
48579;DHT22;34357;51.948;6.132;2024-02-23T12:49:08;7.60;78.20
48579;DHT22;34357;51.948;6.132;2024-02-23T12:51:34;7.60;78.10
48579;DHT22;34357;51.948;6.132;2024-02-23T12:54:00;7.70;78.40
48579;DHT22;34357;51.948;6.132;2024-02-23T12:56:26;7.70;78.10
48579;DHT22;34357;51.948;6.132;2024-02-23T12:58:51;7.70;78.00
48579;DHT22;34357;51.948;6.132;2024-02-23T13:01:19;7.70;78.10
48579;DHT22;34357;51.948;6.132;2024-02-23T13:03:45;7.70;78.60
48579;DHT22;34357;51.948;6.132;2024-02-23T13:06:11;7.70;78.50
48579;DHT22;34357;51.948;6.132;2024-02-23T13:08:38;7.70;79.30
48579;DHT22;34357;51.948;6.132;2024-02-23T13:11:06;7.70;80.80
48579;DHT22;34357;51.948;6.132;2024-02-23T13:13:32;7.70;80.40
48579;DHT22;34357;51.948;6.132;2024-02-23T13:16:01;7.70;80.10
48579;DHT22;34357;51.948;6.132;2024-02-23T13:18:27;7.70;79.50
48579;DHT22;34357;51.948;6.132;2024-02-23T13:20:53;7.70;79.40
48579;DHT22;34357;51.948;6.132;2024-02-23T13:23:19;7.80;79.00
48579;DHT22;34357;51.948;6.132;2024-02-23T13:25:45;7.80;79.20
48579;DHT22;34357;51.948;6.132;2024-02-23T13:28:11;7.70;79.20
48579;DHT22;34357;51.948;6.132;2024-02-23T13:30:37;7.70;79.30
48579;DHT22;34357;51.948;6.132;2024-02-23T13:33:04;7.80;79.50
48579;DHT22;34357;51.948;6.132;2024-02-23T13:35:31;7.80;79.50
48579;DHT22;34357;51.948;6.132;2024-02-23T13:37:57;7.70;79.50
48579;DHT22;34357;51.948;6.132;2024-02-23T13:40:25;7.80;79.90
48579;DHT22;34357;51.948;6.132;2024-02-23T13:42:51;7.80;80.20
48579;DHT22;34357;51.948;6.132;2024-02-23T13:45:19;7.70;79.80
48579;DHT22;34357;51.948;6.132;2024-02-23T13:47:56;7.70;80.60
48579;DHT22;34357;51.948;6.132;2024-02-23T13:50:22;7.80;80.90
48579;DHT22;34357;51.948;6.132;2024-02-23T13:52:48;7.80;80.80
48579;DHT22;34357;51.948;6.132;2024-02-23T13:55:14;7.70;81.40
48579;DHT22;34357;51.948;6.132;2024-02-23T13:57:39;7.80;82.70
48579;DHT22;34357;51.948;6.132;2024-02-23T14:00:06;7.70;82.40
48579;DHT22;34357;51.948;6.132;2024-02-23T14:02:39;7.80;82.90
48579;DHT22;34357;51.948;6.132;2024-02-23T14:05:07;7.70;83.60
48579;DHT22;34357;51.948;6.132;2024-02-23T14:07:34;7.60;83.40
48579;DHT22;34357;51.948;6.132;2024-02-23T14:10:00;7.60;83.30
48579;DHT22;34357;51.948;6.132;2024-02-23T14:12:26;7.60;83.50
48579;DHT22;34357;51.948;6.132;2024-02-23T14:14:51;7.60;83.20
48579;DHT22;34357;51.948;6.132;2024-02-23T14:17:17;7.90;83.40
48579;DHT22;34357;51.948;6.132;2024-02-23T14:19:43;8.20;82.10
48579;DHT22;34357;51.948;6.132;2024-02-23T14:22:09;8.30;81.00
48579;DHT22;34357;51.948;6.132;2024-02-23T14:24:34;8.20;81.00
48579;DHT22;34357;51.948;6.132;2024-02-23T14:27:00;8.30;81.00
48579;DHT22;34357;51.948;6.132;2024-02-23T14:29:26;8.40;80.90
48579;DHT22;34357;51.948;6.132;2024-02-23T14:31:52;8.40;80.00
48579;DHT22;34357;51.948;6.132;2024-02-23T14:34:18;8.40;80.10
48579;DHT22;34357;51.948;6.132;2024-02-23T14:36:45;8.20;79.60
48579;DHT22;34357;51.948;6.132;2024-02-23T14:39:11;8.10;79.80
48579;DHT22;34357;51.948;6.132;2024-02-23T14:41:39;7.80;81.90
48579;DHT22;34357;51.948;6.132;2024-02-23T14:44:04;7.60;83.70
48579;DHT22;34357;51.948;6.132;2024-02-23T14:46:30;7.50;84.70
48579;DHT22;34357;51.948;6.132;2024-02-23T14:48:56;7.40;85.50
48579;DHT22;34357;51.948;6.132;2024-02-23T14:51:21;7.30;86.20
48579;DHT22;34357;51.948;6.132;2024-02-23T14:53:47;7.30;86.80
48579;DHT22;34357;51.948;6.132;2024-02-23T14:56:13;7.20;87.20
48579;DHT22;34357;51.948;6.132;2024-02-23T14:58:39;7.10;87.90
48579;DHT22;34357;51.948;6.132;2024-02-23T15:01:05;7.20;88.30
48579;DHT22;34357;51.948;6.132;2024-02-23T15:03:31;7.10;88.30
48579;DHT22;34357;51.948;6.132;2024-02-23T15:05:58;7.20;88.70
48579;DHT22;34357;51.948;6.132;2024-02-23T15:08:24;7.20;88.50
48579;DHT22;34357;51.948;6.132;2024-02-23T15:10:50;7.30;88.40
48579;DHT22;34357;51.948;6.132;2024-02-23T15:13:17;7.40;88.00
48579;DHT22;34357;51.948;6.132;2024-02-23T15:15:43;7.50;88.20
48579;DHT22;34357;51.948;6.132;2024-02-23T15:18:09;7.60;88.00
48579;DHT22;34357;51.948;6.132;2024-02-23T15:20:35;7.70;87.50
48579;DHT22;34357;51.948;6.132;2024-02-23T15:23:01;7.90;87.20
48579;DHT22;34357;51.948;6.132;2024-02-23T15:25:27;7.90;86.60
48579;DHT22;34357;51.948;6.132;2024-02-23T15:27:53;7.90;86.60
48579;DHT22;34357;51.948;6.132;2024-02-23T15:30:24;7.80;86.50
48579;DHT22;34357;51.948;6.132;2024-02-23T15:32:49;7.70;85.00
48579;DHT22;34357;51.948;6.132;2024-02-23T15:35:15;7.80;84.40
48579;DHT22;34357;51.948;6.132;2024-02-23T15:37:41;7.80;84.50
48579;DHT22;34357;51.948;6.132;2024-02-23T15:40:07;7.80;83.50